Time;durP1;ratioP1;P1;durP2;ratioP2;P2;SDS_P1;SDS_P2;PMS_P1;PMS_P2;Temp;Humidity;BMP_temperature;BMP_pressure;BME280_temperature;BME280_humidity;BME280_pressure;Samples;Min_cycle;Max_cycle;Signal;HPM_P1;HPM_P2
2021/11/29 00:02:19;;;;;;;4.60;2.20;;;3.30;99.90;;;;;;5068234;28;20035;-86
2021/11/29 00:04:45;;;;;;;2.50;2.30;;;2.90;99.90;;;;;;5066455;28;20108;-86
2021/11/29 00:07:11;;;;;;;4.60;2.25;;;2.80;99.90;;;;;;5066448;28;20658;-87
2021/11/29 00:09:37;;;;;;;4.80;2.28;;;2.90;99.90;;;;;;5052944;28;20132;-86
2021/11/29 00:12:03;;;;;;;2.65;2.05;;;3.10;99.90;;;;;;5054118;28;20043;-86
2021/11/29 00:14:29;;;;;;;3.67;2.00;;;2.90;99.90;;;;;;5030733;28;20091;-86
2021/11/29 00:16:55;;;;;;;5.28;2.13;;;2.80;99.90;;;;;;5069206;28;20070;-86
2021/11/29 00:19:21;;;;;;;3.13;1.80;;;2.70;99.90;;;;;;5055327;28;20447;-87
2021/11/29 00:21:47;;;;;;;4.00;2.05;;;2.70;99.90;;;;;;5069216;28;20420;-86
2021/11/29 00:24:13;;;;;;;4.28;1.90;;;2.60;99.90;;;;;;5057579;28;20031;-87
2021/11/29 00:26:39;;;;;;;4.15;2.03;;;2.70;99.90;;;;;;5045598;28;20027;-86
2021/11/29 00:29:05;;;;;;;2.80;2.33;;;2.70;99.90;;;;;;5065174;28;20032;-86
2021/11/29 00:31:31;;;;;;;3.83;1.92;;;2.80;99.90;;;;;;5052159;28;20104;-86
2021/11/29 00:33:57;;;;;;;2.60;2.20;;;2.80;99.90;;;;;;5015614;28;20117;-86
2021/11/29 00:36:23;;;;;;;4.38;2.20;;;2.90;99.90;;;;;;5044756;28;20025;-86
2021/11/29 00:38:48;;;;;;;3.63;2.42;;;2.90;99.90;;;;;;5047727;28;20037;-86
2021/11/29 00:41:15;;;;;;;3.30;2.20;;;2.90;99.90;;;;;;5044580;28;20185;-87
2021/11/29 00:43:41;;;;;;;3.00;2.20;;;2.90;99.90;;;;;;5047460;28;20088;-86
2021/11/29 00:46:07;;;;;;;2.40;1.85;;;2.80;99.90;;;;;;5033849;28;20470;-87
2021/11/29 00:48:33;;;;;;;3.15;2.03;;;2.90;99.90;;;;;;5066550;28;20033;-86
2021/11/29 00:50:58;;;;;;;3.00;1.90;;;3.00;99.90;;;;;;5059691;28;20519;-86
2021/11/29 00:53:24;;;;;;;2.58;2.08;;;3.00;99.90;;;;;;5044468;28;20053;-87
2021/11/29 00:55:50;;;;;;;2.78;2.22;;;3.00;99.90;;;;;;5036750;28;20104;-86
2021/11/29 00:58:15;;;;;;;4.28;2.60;;;3.10;99.90;;;;;;5056095;28;20096;-86
2021/11/29 01:00:41;;;;;;;5.40;2.58;;;3.10;99.90;;;;;;5056312;28;20396;-85
2021/11/29 01:03:07;;;;;;;6.07;2.60;;;3.10;99.90;;;;;;5061800;28;20028;-86
2021/11/29 01:05:33;;;;;;;4.57;2.53;;;3.10;99.90;;;;;;5065053;28;20059;-86
2021/11/29 01:07:59;;;;;;;5.20;3.22;;;3.00;99.90;;;;;;5061083;28;20033;-86
2021/11/29 01:10:28;;;;;;;3.03;2.40;;;2.90;99.90;;;;;;5065662;28;20111;-87
2021/11/29 01:12:55;;;;;;;2.78;2.20;;;3.10;99.90;;;;;;5055091;28;20025;-86
2021/11/29 01:15:25;;;;;;;5.00;2.35;;;2.90;99.90;;;;;;5056486;28;20124;-86
2021/11/29 01:17:51;;;;;;;2.95;1.92;;;2.90;99.90;;;;;;5057227;28;20021;-86
2021/11/29 01:20:17;;;;;;;3.95;2.30;;;2.90;99.90;;;;;;5044145;28;20037;-86
2021/11/29 01:22:44;;;;;;;4.18;2.00;;;2.80;99.90;;;;;;5034071;28;20096;-86
2021/11/29 01:25:11;;;;;;;2.30;1.90;;;2.70;99.90;;;;;;5064747;28;20060;-86
2021/11/29 01:27:37;;;;;;;5.38;2.40;;;2.90;99.90;;;;;;5054034;28;20087;-86
2021/11/29 01:30:05;;;;;;;4.60;2.03;;;2.80;99.90;;;;;;5051191;28;20037;-86
2021/11/29 01:32:31;;;;;;;3.03;2.17;;;2.80;99.90;;;;;;5062895;28;20083;-86
2021/11/29 01:34:57;;;;;;;2.58;2.00;;;3.30;99.90;;;;;;5047750;28;20716;-86
2021/11/29 01:37:22;;;;;;;3.03;1.85;;;3.00;99.90;;;;;;5054073;28;20024;-86
2021/11/29 01:39:48;;;;;;;3.40;2.13;;;2.90;99.90;;;;;;5047288;28;20435;-86
2021/11/29 01:42:14;;;;;;;3.03;2.08;;;2.90;99.90;;;;;;5045256;28;20024;-86
2021/11/29 01:44:40;;;;;;;3.17;2.03;;;2.90;99.90;;;;;;5052118;28;20037;-86
2021/11/29 01:47:05;;;;;;;3.67;1.92;;;2.80;99.90;;;;;;5047895;28;20095;-86
2021/11/29 01:49:32;;;;;;;3.70;1.95;;;3.10;99.90;;;;;;5049603;28;20071;-86
2021/11/29 01:51:57;;;;;;;2.65;1.60;;;2.80;99.90;;;;;;5069298;28;20024;-86
2021/11/29 01:54:25;;;;;;;2.30;1.90;;;2.90;99.90;;;;;;5062845;28;20025;-86
2021/11/29 01:56:51;;;;;;;3.45;1.73;;;2.90;99.90;;;;;;5064365;28;20032;-86
2021/11/29 01:59:16;;;;;;;3.03;1.73;;;2.80;99.90;;;;;;5046240;28;20021;-87
2021/11/29 02:01:42;;;;;;;2.10;1.55;;;2.80;99.90;;;;;;5064761;28;20029;-86
2021/11/29 02:04:11;;;;;;;2.72;1.80;;;2.70;99.90;;;;;;5072103;28;20024;-85
2021/11/29 02:06:38;;;;;;;2.00;1.70;;;2.80;99.90;;;;;;5054162;28;20061;-86
2021/11/29 02:09:05;;;;;;;2.67;2.10;;;2.80;99.90;;;;;;5053915;28;20017;-85
2021/11/29 02:11:31;;;;;;;2.40;2.08;;;2.70;99.90;;;;;;5046555;28;20071;-86
2021/11/29 02:14:00;;;;;;;4.10;2.10;;;2.70;99.90;;;;;;5065173;28;20032;-86
2021/11/29 02:16:27;;;;;;;4.15;2.10;;;2.60;99.90;;;;;;5067284;28;20032;-86
2021/11/29 02:18:53;;;;;;;3.13;2.05;;;3.10;99.90;;;;;;5059000;28;20028;-86
2021/11/29 02:21:31;;;;;;;2.70;2.17;;;2.60;99.90;;;;;;5054368;28;20115;-87
2021/11/29 02:24:06;;;;;;;4.40;2.05;;;2.50;99.90;;;;;;5052237;28;20056;-86
2021/11/29 02:26:34;;;;;;;2.42;2.15;;;3.00;99.90;;;;;;5053982;28;20534;-86
2021/11/29 02:29:05;;;;;;;2.35;1.77;;;2.60;99.90;;;;;;5051424;28;20078;-86
2021/11/29 02:31:34;;;;;;;3.28;2.17;;;2.60;99.90;;;;;;5066372;28;20036;-86
2021/11/29 02:34:11;;;;;;;2.88;2.08;;;2.50;99.90;;;;;;5055793;28;20021;-86
2021/11/29 02:36:37;;;;;;;6.40;2.97;;;2.50;99.90;;;;;;5062573;28;20040;-86
2021/11/29 02:39:05;;;;;;;4.78;3.20;;;2.50;99.90;;;;;;5063273;28;20162;-86
2021/11/29 02:41:31;;;;;;;4.30;2.58;;;2.40;99.90;;;;;;5065224;28;20037;-86
2021/11/29 02:43:56;;;;;;;3.60;2.45;;;2.50;99.90;;;;;;5051966;28;20035;-86
2021/11/29 02:46:22;;;;;;;3.00;2.03;;;2.60;99.90;;;;;;5070374;28;20532;-86
2021/11/29 02:48:50;;;;;;;3.63;2.35;;;2.50;99.90;;;;;;5047199;28;20021;-86
2021/11/29 02:51:24;;;;;;;3.90;2.00;;;2.50;99.90;;;;;;5061089;28;20094;-86
2021/11/29 02:53:52;;;;;;;3.40;2.20;;;2.50;99.90;;;;;;5065337;28;20047;-86
2021/11/29 02:56:18;;;;;;;3.50;1.88;;;2.80;99.90;;;;;;5056976;28;20112;-86
2021/11/29 02:58:44;;;;;;;2.08;1.75;;;2.50;99.90;;;;;;5068457;28;20063;-86
2021/11/29 03:01:10;;;;;;;2.78;1.63;;;2.50;99.90;;;;;;5066953;28;20108;-86
2021/11/29 03:03:46;;;;;;;1.73;1.58;;;2.50;99.90;;;;;;5055652;28;20064;-86
2021/11/29 03:06:12;;;;;;;2.17;1.80;;;2.50;99.90;;;;;;5038607;28;20064;-86
2021/11/29 03:08:40;;;;;;;3.05;1.80;;;2.50;99.90;;;;;;5046580;28;20021;-86
2021/11/29 03:11:05;;;;;;;2.70;1.98;;;2.40;99.90;;;;;;5048234;28;20470;-86
2021/11/29 03:13:31;;;;;;;3.00;1.95;;;2.40;99.90;;;;;;5035365;28;20117;-86
2021/11/29 03:15:57;;;;;;;2.40;1.83;;;2.40;99.90;;;;;;5051042;28;20443;-86
2021/11/29 03:18:34;;;;;;;2.67;1.95;;;2.50;99.90;;;;;;5056355;28;20029;-86
2021/11/29 03:21:00;;;;;;;2.03;1.50;;;2.50;99.90;;;;;;5068762;28;20042;-86
2021/11/29 03:23:26;;;;;;;1.70;1.40;;;2.90;99.90;;;;;;5060189;28;20096;-86
2021/11/29 03:25:51;;;;;;;2.45;1.20;;;2.40;99.90;;;;;;5066686;28;20079;-86
2021/11/29 03:28:17;;;;;;;1.35;1.25;;;2.40;99.90;;;;;;5057554;28;20021;-86
2021/11/29 03:30:43;;;;;;;1.77;1.63;;;2.70;99.90;;;;;;5060155;28;20045;-86
2021/11/29 03:33:08;;;;;;;2.17;1.35;;;2.50;99.90;;;;;;5070251;28;20044;-86
2021/11/29 03:35:36;;;;;;;1.75;1.55;;;2.90;99.90;;;;;;5064335;28;20029;-86
2021/11/29 03:38:03;;;;;;;2.38;1.77;;;2.60;99.90;;;;;;5053296;28;20020;-87
2021/11/29 03:40:29;;;;;;;1.90;1.40;;;2.40;99.90;;;;;;5052779;28;20044;-86
2021/11/29 03:42:55;;;;;;;2.78;1.38;;;2.40;99.90;;;;;;5072863;28;20028;-86
2021/11/29 03:45:22;;;;;;;2.25;1.40;;;2.40;99.90;;;;;;5067170;28;20404;-87
2021/11/29 03:47:48;;;;;;;2.70;1.50;;;2.40;99.90;;;;;;5049537;28;20038;-86
2021/11/29 03:50:14;;;;;;;2.05;1.63;;;2.40;99.90;;;;;;5043304;28;20032;-85
2021/11/29 03:52:39;;;;;;;4.75;1.70;;;3.00;99.90;;;;;;5050732;28;20052;-86
2021/11/29 03:55:05;;;;;;;2.15;1.52;;;2.60;99.90;;;;;;5058580;28;20397;-86
2021/11/29 03:57:31;;;;;;;2.05;1.40;;;2.40;99.90;;;;;;5066250;28;20035;-86
2021/11/29 03:59:57;;;;;;;1.67;1.30;;;2.30;99.90;;;;;;5060038;28;20032;-86
2021/11/29 04:02:22;;;;;;;1.42;1.33;;;2.70;99.90;;;;;;5045805;28;20025;-86
2021/11/29 04:04:48;;;;;;;1.55;1.38;;;2.90;99.90;;;;;;5038026;28;20127;-86
2021/11/29 04:07:14;;;;;;;1.67;1.30;;;2.40;99.90;;;;;;5072695;28;20021;-86
2021/11/29 04:09:39;;;;;;;1.90;1.73;;;2.50;99.90;;;;;;5054733;28;20056;-87
2021/11/29 04:12:06;;;;;;;1.50;1.30;;;2.30;99.90;;;;;;5058336;28;20516;-86
2021/11/29 04:14:31;;;;;;;2.83;1.50;;;2.30;99.90;;;;;;5056081;28;20381;-86
2021/11/29 04:16:57;;;;;;;1.88;1.67;;;2.40;99.90;;;;;;5047862;28;20067;-86
2021/11/29 04:19:23;;;;;;;1.40;1.30;;;2.80;99.90;;;;;;5056358;28;20064;-86
2021/11/29 04:21:49;;;;;;;1.92;1.50;;;2.80;99.90;;;;;;5059694;28;20051;-86
2021/11/29 04:24:16;;;;;;;3.15;1.30;;;2.40;99.90;;;;;;5066606;28;20489;-85
2021/11/29 04:26:43;;;;;;;2.97;1.50;;;2.30;99.90;;;;;;5064035;28;20024;-86
2021/11/29 04:29:19;;;;;;;2.40;1.67;;;2.40;99.90;;;;;;5054176;28;20028;-86
2021/11/29 04:31:46;;;;;;;2.28;1.77;;;2.40;99.90;;;;;;5036410;28;20025;-87
2021/11/29 04:34:12;;;;;;;1.50;1.40;;;2.40;99.90;;;;;;5052593;28;20910;-87
2021/11/29 04:36:37;;;;;;;3.50;1.60;;;2.50;99.90;;;;;;5057766;28;20025;-86
2021/11/29 04:39:04;;;;;;;2.03;1.80;;;2.40;99.90;;;;;;5056396;28;20025;-86
2021/11/29 04:41:30;;;;;;;2.13;1.90;;;2.50;99.90;;;;;;5056917;28;20409;-86
2021/11/29 04:43:56;;;;;;;1.75;1.65;;;2.60;99.90;;;;;;5052260;28;20029;-86
2021/11/29 04:46:21;;;;;;;2.08;1.90;;;2.60;99.90;;;;;;5054913;28;20041;-86
2021/11/29 04:48:47;;;;;;;3.50;1.92;;;2.90;99.90;;;;;;5065256;28;20044;-86
2021/11/29 04:51:12;;;;;;;2.65;1.92;;;2.80;99.90;;;;;;5059937;28;20410;-86
2021/11/29 04:53:41;;;;;;;3.67;2.13;;;2.50;99.90;;;;;;5055451;28;20045;-86
2021/11/29 04:56:07;;;;;;;3.88;2.03;;;2.50;99.90;;;;;;5050766;28;20047;-86
2021/11/29 04:58:33;;;;;;;2.47;2.13;;;2.50;99.90;;;;;;5050238;28;20029;-86
2021/11/29 05:00:59;;;;;;;5.85;2.30;;;2.40;99.90;;;;;;5056392;28;20032;-87
2021/11/29 05:03:24;;;;;;;3.53;2.17;;;2.30;99.90;;;;;;5051198;28;20029;-86
2021/11/29 05:05:51;;;;;;;4.00;2.20;;;2.40;99.90;;;;;;5054583;28;20505;-86
2021/11/29 05:08:16;;;;;;;2.45;2.22;;;2.30;99.90;;;;;;5056676;28;20050;-86
2021/11/29 05:10:42;;;;;;;2.80;2.08;;;2.40;99.90;;;;;;5050405;28;20036;-87
2021/11/29 05:13:09;;;;;;;3.05;2.17;;;3.00;99.90;;;;;;5053262;28;20032;-86
2021/11/29 05:15:35;;;;;;;4.20;2.28;;;2.50;99.90;;;;;;5054995;28;20037;-86
2021/11/29 05:18:01;;;;;;;2.95;2.40;;;2.90;99.90;;;;;;5053429;28;20028;-87
2021/11/29 05:20:27;;;;;;;2.45;2.25;;;2.70;99.90;;;;;;5047622;28;20028;-86
2021/11/29 05:22:52;;;;;;;2.42;2.22;;;3.20;99.90;;;;;;5047382;28;20075;-86
2021/11/29 05:25:19;;;;;;;2.45;2.20;;;2.40;99.90;;;;;;5064782;28;20439;-86
2021/11/29 05:27:46;;;;;;;3.08;2.38;;;2.60;99.90;;;;;;5053937;28;20021;-86
2021/11/29 05:30:12;;;;;;;2.58;2.30;;;2.40;99.90;;;;;;5059857;28;20044;-86
2021/11/29 05:32:38;;;;;;;3.28;2.70;;;2.50;99.90;;;;;;5055636;28;20032;-86
2021/11/29 05:35:05;;;;;;;3.65;2.60;;;2.40;99.90;;;;;;5041493;28;20029;-86
2021/11/29 05:37:31;;;;;;;2.78;2.45;;;2.40;99.90;;;;;;5065391;28;20105;-86
2021/11/29 05:39:57;;;;;;;4.60;2.65;;;2.30;99.90;;;;;;5066946;28;20564;-86
2021/11/29 05:42:22;;;;;;;3.30;2.88;;;2.30;99.90;;;;;;5055588;28;20036;-87
2021/11/29 05:44:50;;;;;;;3.78;2.80;;;2.30;99.90;;;;;;5055601;28;20029;-86
2021/11/29 05:47:19;;;;;;;3.33;2.20;;;2.70;99.90;;;;;;5044933;28;20014;-85
2021/11/29 05:49:45;;;;;;;7.18;4.80;;;2.30;99.90;;;;;;5063598;28;20077;-86
2021/11/29 05:52:10;;;;;;;4.45;3.50;;;2.30;99.90;;;;;;5064245;28;20497;-86
2021/11/29 05:54:36;;;;;;;21.67;9.18;;;2.60;99.90;;;;;;5053660;28;20107;-86
2021/11/29 05:57:02;;;;;;;7.45;5.40;;;2.40;99.90;;;;;;5049860;28;20107;-86
2021/11/29 05:59:28;;;;;;;5.78;3.65;;;2.40;99.90;;;;;;5052490;28;20033;-86
2021/11/29 06:01:54;;;;;;;6.50;4.18;;;3.10;99.90;;;;;;5036172;28;20032;-86
2021/11/29 06:04:20;;;;;;;63.40;30.08;;;2.40;99.90;;;;;;5051123;28;20032;-86
2021/11/29 06:06:46;;;;;;;32.92;15.63;;;2.40;99.90;;;;;;5064455;28;20127;-86
2021/11/29 06:09:11;;;;;;;48.13;23.45;;;2.50;99.90;;;;;;5065867;28;20174;-87
2021/11/29 06:11:37;;;;;;;8.90;5.10;;;2.40;99.90;;;;;;5062350;28;20120;-86
2021/11/29 06:14:03;;;;;;;5.72;4.20;;;2.40;99.90;;;;;;5040717;28;20037;-86
2021/11/29 06:16:28;;;;;;;7.03;5.50;;;2.50;99.90;;;;;;5065444;28;20035;-85
2021/11/29 06:18:54;;;;;;;5.18;4.07;;;2.50;99.90;;;;;;5054960;28;20083;-86
2021/11/29 06:21:20;;;;;;;5.00;4.10;;;2.60;99.90;;;;;;5035227;28;20093;-86
2021/11/29 06:23:45;;;;;;;10.70;8.30;;;2.60;99.90;;;;;;5047992;28;20021;-86
2021/11/29 06:26:11;;;;;;;4.78;4.00;;;2.50;99.90;;;;;;5056768;28;20112;-86
2021/11/29 06:28:37;;;;;;;6.47;4.20;;;2.60;99.90;;;;;;5064214;28;20032;-86
2021/11/29 06:31:02;;;;;;;5.22;3.92;;;2.60;99.90;;;;;;5033494;28;20048;-86
2021/11/29 06:33:28;;;;;;;4.60;4.00;;;2.50;99.90;;;;;;5068620;28;20075;-86
2021/11/29 06:35:58;;;;;;;4.20;3.80;;;2.80;99.90;;;;;;5059379;28;20039;-86
2021/11/29 06:38:26;;;;;;;3.85;3.45;;;2.60;99.90;;;;;;5067041;28;20028;-86
2021/11/29 06:40:53;;;;;;;5.95;4.88;;;2.70;99.90;;;;;;5050967;28;20029;-86
2021/11/29 06:43:21;;;;;;;4.65;3.47;;;2.60;99.90;;;;;;5068105;28;20051;-86
2021/11/29 06:45:47;;;;;;;3.95;3.53;;;2.60;99.90;;;;;;5051078;28;20425;-86
2021/11/29 06:48:13;;;;;;;4.10;3.70;;;2.50;99.90;;;;;;5055709;28;20025;-86
2021/11/29 06:50:39;;;;;;;4.47;3.72;;;2.50;99.90;;;;;;5045438;28;20053;-86
2021/11/29 06:53:05;;;;;;;5.20;3.90;;;2.60;99.90;;;;;;5045920;28;20052;-86
2021/11/29 06:55:32;;;;;;;4.95;4.10;;;2.50;99.90;;;;;;5054831;28;20033;-86
2021/11/29 06:57:58;;;;;;;4.20;3.20;;;2.50;99.90;;;;;;5063773;28;20063;-86
2021/11/29 07:00:24;;;;;;;5.25;4.40;;;2.40;99.90;;;;;;5058195;28;20033;-86
2021/11/29 07:02:52;;;;;;;5.65;3.90;;;2.50;99.90;;;;;;5056509;28;20446;-86
2021/11/29 07:05:18;;;;;;;8.48;5.38;;;2.50;99.90;;;;;;5046004;28;20053;-86
2021/11/29 07:07:45;;;;;;;16.20;11.43;;;2.40;99.90;;;;;;5036295;28;20457;-85
2021/11/29 07:10:11;;;;;;;6.85;4.68;;;2.50;99.90;;;;;;5059489;28;20041;-86
2021/11/29 07:12:39;;;;;;;5.30;4.57;;;2.60;99.90;;;;;;5059430;28;20027;-86
2021/11/29 07:15:07;;;;;;;5.85;5.20;;;2.50;99.90;;;;;;5039689;28;20032;-86
2021/11/29 07:17:33;;;;;;;5.45;4.60;;;2.60;99.90;;;;;;5066070;28;20025;-86
2021/11/29 07:19:59;;;;;;;4.53;4.13;;;2.60;99.90;;;;;;5048706;28;20033;-87
2021/11/29 07:22:25;;;;;;;5.45;4.30;;;2.60;99.90;;;;;;5054265;28;20094;-86
2021/11/29 07:24:52;;;;;;;21.05;11.45;;;2.70;99.90;;;;;;5067765;28;20091;-85
2021/11/29 07:27:20;;;;;;;6.50;5.10;;;2.70;99.90;;;;;;5058425;28;20029;-86
2021/11/29 07:29:46;;;;;;;21.10;12.02;;;2.70;99.90;;;;;;5058597;28;20035;-86
2021/11/29 07:32:12;;;;;;;11.15;8.02;;;3.00;99.90;;;;;;5058902;28;20113;-85
2021/11/29 07:34:38;;;;;;;9.20;7.70;;;2.60;99.90;;;;;;5052311;28;20080;-87
2021/11/29 07:37:04;;;;;;;4.85;4.35;;;2.70;99.90;;;;;;5050374;28;20079;-87
2021/11/29 07:39:30;;;;;;;5.35;4.85;;;2.60;99.90;;;;;;5044212;28;20032;-87
2021/11/29 07:41:58;;;;;;;6.32;5.18;;;2.50;99.90;;;;;;5056044;28;20508;-86
2021/11/29 07:44:24;;;;;;;4.65;4.15;;;2.70;99.90;;;;;;5056440;28;20035;-86
2021/11/29 07:46:49;;;;;;;4.63;4.03;;;2.60;99.90;;;;;;5051459;28;20080;-86
2021/11/29 07:49:15;;;;;;;6.47;4.97;;;2.90;99.90;;;;;;5056920;28;20029;-84
2021/11/29 07:51:41;;;;;;;6.20;5.60;;;2.60;99.90;;;;;;5057073;28;20033;-86
2021/11/29 07:54:07;;;;;;;6.18;5.03;;;2.70;99.90;;;;;;5056403;28;20025;-85
2021/11/29 07:56:33;;;;;;;6.63;5.47;;;2.70;99.90;;;;;;5048749;28;20550;-87
2021/11/29 07:58:58;;;;;;;11.77;8.82;;;2.60;99.90;;;;;;5053483;28;20025;-86
2021/11/29 08:01:24;;;;;;;10.68;8.48;;;2.70;99.90;;;;;;5054788;28;20084;-85
2021/11/29 08:03:50;;;;;;;6.35;5.07;;;3.20;99.90;;;;;;5058207;28;20028;-87
2021/11/29 08:06:15;;;;;;;7.50;5.97;;;2.80;99.90;;;;;;5056101;28;20140;-86
2021/11/29 08:08:44;;;;;;;6.57;5.93;;;2.80;99.90;;;;;;5056181;28;20021;-86
2021/11/29 08:11:10;;;;;;;5.05;4.55;;;2.80;99.90;;;;;;5055625;28;20028;-86
2021/11/29 08:13:36;;;;;;;5.32;4.40;;;2.70;99.90;;;;;;5051566;28;20037;-87
2021/11/29 08:16:01;;;;;;;5.25;4.70;;;2.70;99.90;;;;;;5050522;28;20037;-87
2021/11/29 08:18:27;;;;;;;4.82;4.18;;;3.30;99.90;;;;;;5055151;28;20029;-87
2021/11/29 08:20:52;;;;;;;4.95;4.45;;;2.70;99.90;;;;;;5055703;28;20071;-86
2021/11/29 08:23:18;;;;;;;7.40;5.00;;;2.70;99.90;;;;;;5056144;28;20024;-85
2021/11/29 08:25:44;;;;;;;7.05;5.78;;;2.70;99.90;;;;;;5052039;28;20029;-83
2021/11/29 08:28:11;;;;;;;7.15;6.45;;;3.20;99.90;;;;;;5057877;28;20032;-86
2021/11/29 08:30:38;;;;;;;6.70;5.30;;;2.90;99.90;;;;;;5055827;28;20116;-85
2021/11/29 08:33:04;;;;;;;5.88;5.28;;;2.80;99.90;;;;;;5056164;28;20029;-84
2021/11/29 08:35:30;;;;;;;7.03;5.20;;;2.70;99.90;;;;;;5055703;28;20028;-85
2021/11/29 08:37:58;;;;;;;6.40;5.22;;;2.80;99.90;;;;;;5048854;28;20029;-83
2021/11/29 08:40:30;;;;;;;7.43;6.25;;;2.80;99.90;;;;;;5054074;28;20091;-84
2021/11/29 08:43:00;;;;;;;5.95;5.35;;;2.90;99.90;;;;;;5055452;28;20057;-85
2021/11/29 08:45:25;;;;;;;6.93;5.93;;;2.80;99.90;;;;;;5055357;28;20064;-85
2021/11/29 08:47:52;;;;;;;6.07;5.45;;;3.20;99.90;;;;;;5055309;28;20067;-88
2021/11/29 08:50:18;;;;;;;5.90;5.10;;;2.70;99.90;;;;;;5048544;28;20086;-84
2021/11/29 08:52:44;;;;;;;9.82;6.75;;;2.80;99.90;;;;;;5049014;28;20021;-84
2021/11/29 08:55:10;;;;;;;13.85;9.73;;;3.40;99.90;;;;;;5057225;28;20025;-84
2021/11/29 08:57:37;;;;;;;15.43;10.70;;;3.30;99.90;;;;;;5053441;28;20124;-84
2021/11/29 09:00:11;;;;;;;9.45;6.65;;;2.90;99.90;;;;;;5055022;28;20116;-83
2021/11/29 09:02:38;;;;;;;9.50;7.05;;;3.00;99.90;;;;;;5055580;28;20100;-84
2021/11/29 09:05:05;;;;;;;5.78;5.00;;;3.40;99.90;;;;;;5053422;28;20040;-84
2021/11/29 09:07:31;;;;;;;7.88;6.28;;;2.90;99.90;;;;;;5051683;28;20025;-84
2021/11/29 09:09:58;;;;;;;7.85;7.05;;;3.20;99.90;;;;;;5057737;28;20090;-85
2021/11/29 09:12:24;;;;;;;7.70;5.85;;;3.00;99.90;;;;;;5049192;28;20060;-85
2021/11/29 09:14:50;;;;;;;7.78;6.47;;;3.00;99.90;;;;;;5051269;28;20067;-84
2021/11/29 09:17:15;;;;;;;6.00;5.40;;;3.00;99.90;;;;;;5053467;28;20036;-84
2021/11/29 09:19:41;;;;;;;8.88;6.32;;;3.10;99.90;;;;;;5034529;28;20083;-84
2021/11/29 09:22:07;;;;;;;9.32;6.82;;;3.00;99.90;;;;;;5056555;28;20033;-84
2021/11/29 09:24:32;;;;;;;7.22;6.53;;;3.10;99.90;;;;;;5048448;28;20079;-84
2021/11/29 09:27:00;;;;;;;9.38;6.00;;;3.20;99.90;;;;;;5044361;28;20373;-84
2021/11/29 09:29:26;;;;;;;8.45;6.78;;;3.30;99.90;;;;;;5054588;28;20039;-84
2021/11/29 09:31:51;;;;;;;7.22;6.03;;;3.40;99.90;;;;;;5050246;28;20097;-84
2021/11/29 09:34:17;;;;;;;11.63;7.45;;;3.30;99.90;;;;;;5055320;28;20481;-84
2021/11/29 09:36:43;;;;;;;7.03;5.85;;;3.30;99.90;;;;;;5053774;28;20040;-84
2021/11/29 09:39:08;;;;;;;7.70;6.00;;;3.30;99.90;;;;;;5045980;28;20021;-84
2021/11/29 09:41:35;;;;;;;7.32;5.55;;;3.30;99.90;;;;;;5054387;28;20028;-84
2021/11/29 09:44:02;;;;;;;7.05;5.60;;;3.60;99.90;;;;;;5052478;28;20021;-84
2021/11/29 09:46:29;;;;;;;8.25;6.03;;;3.40;99.90;;;;;;5051914;28;20028;-84
2021/11/29 09:48:55;;;;;;;6.60;4.97;;;3.60;99.90;;;;;;5056261;28;20039;-84
2021/11/29 09:51:20;;;;;;;7.20;4.88;;;3.50;99.90;;;;;;5054155;28;20041;-84
2021/11/29 09:53:46;;;;;;;10.63;7.70;;;3.50;99.90;;;;;;5054422;28;20096;-84
2021/11/29 09:56:12;;;;;;;86.97;55.80;;;4.00;99.90;;;;;;5050155;28;20444;-84
2021/11/29 09:58:38;;;;;;;26.02;17.65;;;3.60;99.90;;;;;;5065935;28;20033;-84
2021/11/29 10:01:06;;;;;;;9.52;7.72;;;3.70;99.90;;;;;;5056430;28;20074;-87
2021/11/29 10:03:32;;;;;;;8.07;7.28;;;3.70;99.90;;;;;;5054272;28;20025;-84
2021/11/29 10:05:58;;;;;;;19.52;14.75;;;3.60;99.90;;;;;;5054250;28;20565;-84
2021/11/29 10:08:34;;;;;;;16.40;12.27;;;3.90;99.90;;;;;;5053767;28;20515;-84
2021/11/29 10:11:05;;;;;;;15.40;13.60;;;3.80;99.90;;;;;;5050699;28;20038;-83
2021/11/29 10:13:56;;;;;;;8.57;5.13;;;4.20;99.90;;;;;;5050802;28;20025;-83
2021/11/29 10:16:34;;;;;;;14.27;10.88;;;3.80;99.90;;;;;;5051431;28;20036;-83
2021/11/29 10:19:00;;;;;;;13.60;8.07;;;3.90;99.90;;;;;;5054633;28;20128;-83
2021/11/29 10:21:26;;;;;;;19.10;13.52;;;3.90;99.90;;;;;;5053505;28;20176;-84
2021/11/29 10:23:54;;;;;;;11.43;9.25;;;4.10;99.90;;;;;;5053261;28;20088;-83
2021/11/29 10:26:35;;;;;;;9.25;7.60;;;4.30;99.90;;;;;;5054389;28;20119;-88
2021/11/29 10:29:07;;;;;;;10.98;7.95;;;4.70;99.90;;;;;;5052110;28;20037;-84
2021/11/29 10:31:37;;;;;;;23.05;16.10;;;4.40;99.90;;;;;;5050612;28;20071;-84
2021/11/29 10:34:12;;;;;;;16.30;14.20;;;4.50;99.90;;;;;;5055550;28;20104;-83
2021/11/29 10:36:42;;;;;;;16.50;11.43;;;4.90;99.90;;;;;;5052394;28;20439;-83
2021/11/29 10:39:18;;;;;;;10.68;8.48;;;5.70;99.90;;;;;;5053499;28;20439;-83
2021/11/29 10:41:54;;;;;;;7.15;5.93;;;4.90;99.90;;;;;;5053959;28;20025;-85
2021/11/29 10:44:23;;;;;;;8.35;6.88;;;5.20;99.90;;;;;;5053868;28;20081;-85
2021/11/29 10:46:55;;;;;;;5.25;4.22;;;4.50;99.90;;;;;;5049974;28;20520;-85
2021/11/29 10:49:25;;;;;;;13.50;11.27;;;4.50;99.90;;;;;;5053672;28;20029;-85
2021/11/29 10:51:52;;;;;;;10.68;7.63;;;4.40;99.90;;;;;;5053423;28;20437;-84
2021/11/29 10:54:23;;;;;;;11.75;7.50;;;5.00;99.90;;;;;;5052416;28;20025;-84
2021/11/29 10:56:50;;;;;;;70.63;26.13;;;4.50;99.90;;;;;;5053911;28;20022;-85
2021/11/29 10:59:19;;;;;;;71.95;35.00;;;5.30;99.90;;;;;;5053408;28;20106;-85
2021/11/29 11:01:50;;;;;;;22.38;15.02;;;4.40;99.90;;;;;;5049895;28;20033;-85
2021/11/29 11:04:20;;;;;;;27.25;21.08;;;4.20;99.90;;;;;;5054179;28;20064;-85
2021/11/29 11:06:58;;;;;;;8.27;5.70;;;4.10;99.90;;;;;;5053854;28;20055;-85
2021/11/29 11:09:26;;;;;;;7.13;5.82;;;4.00;99.90;;;;;;5053126;28;20041;-85
2021/11/29 11:11:54;;;;;;;8.10;6.00;;;4.50;99.90;;;;;;5051120;28;20033;-82
2021/11/29 11:14:24;;;;;;;6.38;4.55;;;3.90;99.90;;;;;;5053548;28;20484;-83
2021/11/29 11:16:58;;;;;;;6.88;4.90;;;3.90;99.90;;;;;;5050025;28;20022;-90
2021/11/29 11:19:44;;;;;;;7.82;6.32;;;3.90;99.90;;;;;;5057020;28;20025;-93
2021/11/29 11:22:12;;;;;;;12.23;9.38;;;4.00;99.90;;;;;;5018037;28;20052;-90
2021/11/29 11:24:44;;;;;;;8.63;6.93;;;3.90;99.90;;;;;;5057864;28;20469;-85
2021/11/29 11:27:11;;;;;;;5.43;4.13;;;4.10;99.90;;;;;;5056234;28;20035;-89
2021/11/29 11:29:54;;;;;;;6.72;4.95;;;4.60;99.90;;;;;;5048584;28;20087;-93
2021/11/29 11:32:25;;;;;;;4.78;4.10;;;4.90;99.90;;;;;;5056834;28;20040;-86
2021/11/29 11:35:08;;;;;;;7.28;3.92;;;4.40;99.90;;;;;;5053404;28;20448;-94
2021/11/29 11:37:44;;;;;;;7.20;4.65;;;4.30;99.90;;;;;;5069624;28;20038;-88
2021/11/29 11:40:13;;;;;;;5.20;3.85;;;4.30;99.90;;;;;;5066292;28;20021;-89
2021/11/29 11:42:39;;;;;;;6.05;4.20;;;4.70;99.90;;;;;;5066034;28;20040;-88
2021/11/29 11:45:08;;;;;;;3.70;3.05;;;5.00;99.90;;;;;;5047551;28;20040;-81
2021/11/29 11:47:35;;;;;;;4.35;3.50;;;4.50;99.90;;;;;;5047915;28;20032;-84
2021/11/29 11:50:02;;;;;;;6.75;3.70;;;4.40;99.90;;;;;;5054685;28;20036;-86
2021/11/29 11:52:28;;;;;;;4.35;2.97;;;5.10;99.90;;;;;;5052385;28;20127;-86
2021/11/29 11:54:57;;;;;;;5.32;3.08;;;4.50;99.90;;;;;;5058900;28;20162;-85
2021/11/29 11:57:24;;;;;;;3.70;3.22;;;4.50;99.90;;;;;;5056781;28;20542;-81
2021/11/29 12:00:08;;;;;;;3.70;2.80;;;4.60;99.90;;;;;;5056558;28;20025;-84
2021/11/29 12:02:42;;;;;;;4.05;2.90;;;4.60;99.90;;;;;;5054991;28;20021;-84
2021/11/29 12:05:20;;;;;;;6.43;2.90;;;5.20;99.90;;;;;;5067394;28;20036;-84
2021/11/29 12:07:46;;;;;;;5.07;3.65;;;4.60;99.90;;;;;;5035552;28;20029;-84
2021/11/29 12:10:35;;;;;;;6.13;3.63;;;4.50;99.90;;;;;;5058004;28;20105;-81
2021/11/29 12:13:10;;;;;;;4.60;3.42;;;4.50;99.90;;;;;;5056585;28;20023;-81
2021/11/29 12:15:43;;;;;;;5.30;3.53;;;4.50;99.90;;;;;;5056287;28;20120;-82
2021/11/29 12:18:12;;;;;;;4.63;3.50;;;4.60;99.90;;;;;;5055895;28;20111;-81
2021/11/29 12:20:38;;;;;;;4.95;3.50;;;4.70;99.90;;;;;;5055410;28;20496;-82
2021/11/29 12:23:05;;;;;;;4.90;3.42;;;4.60;99.90;;;;;;5054377;28;20043;-82
2021/11/29 12:25:46;;;;;;;5.07;3.28;;;4.60;99.90;;;;;;5053305;28;20024;-82
2021/11/29 12:28:12;;;;;;;11.25;5.10;;;4.60;99.90;;;;;;5064144;28;20036;-82
2021/11/29 12:30:43;;;;;;;6.47;4.05;;;4.30;99.90;;;;;;5055599;28;20044;-82
2021/11/29 12:33:12;;;;;;;6.65;5.03;;;4.80;99.90;;;;;;5056060;28;20036;-82
2021/11/29 12:35:41;;;;;;;6.75;3.80;;;4.30;99.90;;;;;;5055521;28;20106;-82
2021/11/29 12:38:15;;;;;;;4.45;3.83;;;4.30;99.90;;;;;;5054530;28;20052;-82
2021/11/29 12:40:51;;;;;;;4.25;3.42;;;4.30;99.90;;;;;;5050949;28;20048;-82
2021/11/29 12:43:31;;;;;;;4.85;3.88;;;4.10;99.90;;;;;;5065876;28;20025;-82
2021/11/29 12:46:25;;;;;;;4.25;3.50;;;4.70;99.90;;;;;;5057214;28;20560;-81
2021/11/29 12:48:52;;;;;;;6.43;4.10;;;4.40;99.90;;;;;;5054543;28;20380;-82
2021/11/29 12:51:41;;;;;;;7.85;4.57;;;4.30;99.90;;;;;;5053499;28;20082;-82
2021/11/29 12:54:45;;;;;;;10.55;7.30;;;4.30;99.90;;;;;;5060055;28;20155;-82
2021/11/29 12:57:31;;;;;;;201.40;58.00;;;4.40;99.90;;;;;;5055254;28;20045;-82
2021/11/29 12:59:59;;;;;;;46.45;23.42;;;4.60;99.90;;;;;;5055511;28;20021;-82